Terminal Aerodrome Forecast
Issued by NWS

Home | Current Version | Previous Version | Text Only | Print | Product List | Glossary On
Versions: 1 2 3 4 5 6 7 8 9 10 11 12
000
FTUS42 KTAE 301737
TAFECP
TAF
KECP 301737Z 3018/3118 21015G20KT P6SM SCT025 BKN040
      TEMPO 3018/3022 3SM TSRA BKN020CB
     FM310200 24003KT P6SM SCT250
     FM310900 00000KT 5SM BR OVC025
     FM311500 27005KT P6SM BKN050=

USA.gov is the U.S. government's official web portal to all federal, state and local government web resources and services.